createdAt,value
2022-08-17T00:04:18.854Z,3.30
2022-08-17T00:14:18.923Z,3.70
2022-08-17T00:24:19.611Z,3.90
2022-08-17T00:34:19.257Z,3.40
2022-08-17T00:44:19.640Z,3.50
2022-08-17T00:54:19.679Z,3.50
2022-08-17T01:04:20.016Z,4.00
2022-08-17T01:14:20.061Z,3.60
2022-08-17T01:24:20.340Z,4.30
2022-08-17T01:34:20.426Z,5.00
2022-08-17T01:44:20.691Z,4.60
2022-08-17T01:54:20.716Z,3.80
2022-08-17T02:04:20.934Z,4.00
2022-08-17T02:14:20.980Z,3.60
2022-08-17T02:24:58.754Z,2.90
2022-08-17T02:34:22.496Z,4.00
2022-08-17T02:44:39.468Z,4.80
2022-08-17T02:54:40.318Z,4.60
2022-08-17T03:04:23.054Z,5.30
2022-08-17T03:14:26.131Z,4.50
2022-08-17T03:24:25.702Z,4.70
2022-08-17T03:34:23.524Z,4.90
2022-08-17T03:44:22.793Z,5.30
2022-08-17T03:54:23.022Z,6.00
2022-08-17T04:04:27.722Z,6.20
2022-08-17T04:14:23.346Z,6.40
2022-08-17T04:24:23.694Z,5.90
2022-08-17T04:34:23.721Z,5.20
2022-08-17T04:44:36.803Z,5.40
2022-08-17T04:54:25.116Z,4.80
2022-08-17T05:04:34.559Z,5.60
2022-08-17T05:14:33.175Z,5.50
2022-08-17T05:24:43.109Z,5.30
2022-08-17T05:34:25.784Z,5.40
2022-08-17T05:44:25.113Z,4.60
2022-08-17T05:54:25.145Z,4.90
2022-08-17T06:04:25.445Z,4.70
2022-08-17T06:14:25.605Z,5.10
2022-08-17T06:24:25.689Z,4.90
2022-08-17T06:34:25.735Z,4.70
2022-08-17T06:44:49.675Z,4.60
2022-08-17T06:54:27.138Z,5.50
2022-08-17T07:04:26.361Z,5.60
2022-08-17T07:14:26.673Z,6.80
2022-08-17T07:24:30.460Z,6.50
2022-08-17T07:34:26.785Z,5.40
2022-08-17T07:44:26.987Z,6.20
2022-08-17T07:54:27.028Z,5.00
2022-08-17T08:04:49.918Z,5.40
2022-08-17T08:14:28.851Z,4.90
2022-08-17T08:24:30.169Z,5.10
2022-08-17T08:34:54.736Z,6.40
2022-08-17T08:44:59.050Z,6.40
2022-08-17T08:54:29.159Z,5.20
2022-08-17T09:04:28.495Z,5.40
2022-08-17T09:14:29.332Z,5.90
2022-08-17T09:24:28.638Z,5.00
2022-08-17T09:34:33.263Z,5.80
2022-08-17T09:44:29.061Z,4.30
2022-08-17T09:54:44.669Z,3.80
2022-08-17T10:04:30.455Z,4.50
2022-08-17T10:14:36.869Z,4.30
2022-08-17T10:24:30.864Z,4.10
2022-08-17T10:34:29.964Z,3.90
2022-08-17T10:44:38.043Z,4.60
2022-08-17T10:54:31.109Z,3.80
2022-08-17T11:04:30.392Z,4.00
2022-08-17T11:14:30.432Z,4.00
2022-08-17T11:24:30.744Z,3.60
2022-08-17T11:34:30.782Z,3.80
2022-08-17T11:44:31.086Z,3.00
2022-08-17T11:54:33.425Z,2.80
2022-08-17T12:04:31.350Z,3.20
2022-08-17T12:15:05.739Z,3.50
2022-08-17T12:24:32.663Z,3.50
2022-08-17T12:34:31.961Z,3.40
2022-08-17T12:44:32.002Z,3.40
2022-08-17T12:54:34.595Z,3.70
2022-08-17T13:04:32.455Z,3.30
2022-08-17T13:14:33.278Z,3.70
2022-08-17T13:24:38.206Z,3.80
2022-08-17T13:34:34.126Z,3.90
2022-08-17T13:44:33.406Z,3.80
2022-08-17T13:54:33.770Z,3.40
2022-08-17T14:04:33.810Z,3.40
2022-08-17T14:14:34.113Z,3.10
2022-08-17T14:24:34.168Z,3.20
2022-08-17T14:34:34.457Z,3.50
2022-08-17T14:44:34.483Z,3.40
2022-08-17T14:54:34.811Z,4.20
2022-08-17T15:04:34.856Z,3.90
2022-08-17T15:14:35.166Z,5.20
2022-08-17T15:24:35.208Z,4.20
2022-08-17T15:34:35.616Z,3.60
2022-08-17T15:44:35.656Z,4.00
2022-08-17T15:54:36.088Z,3.90
2022-08-17T16:04:36.317Z,3.60
2022-08-17T16:14:36.283Z,3.70
2022-08-17T16:24:36.607Z,4.20
2022-08-17T16:34:36.637Z,4.30
2022-08-17T16:44:36.948Z,4.20
2022-08-17T16:54:36.979Z,4.20
2022-08-17T17:04:37.289Z,4.60
2022-08-17T17:14:37.390Z,4.40
2022-08-17T17:24:37.542Z,4.80
2022-08-17T17:34:37.575Z,4.70
2022-08-17T17:44:37.914Z,4.80
2022-08-17T17:54:37.946Z,4.80
2022-08-17T18:04:38.267Z,4.90
2022-08-17T18:14:38.392Z,4.60
2022-08-17T18:24:38.504Z,5.20
2022-08-17T18:34:46.974Z,5.10
2022-08-17T18:44:39.794Z,4.70
2022-08-17T18:54:39.116Z,4.90
2022-08-17T19:04:39.183Z,5.50
2022-08-17T19:14:39.357Z,5.80
2022-08-17T19:24:47.723Z,5.60
2022-08-17T19:34:40.502Z,5.20
2022-08-17T19:44:39.819Z,6.20
2022-08-17T19:54:39.868Z,7.40
2022-08-17T20:04:40.340Z,6.70
2022-08-17T20:14:40.370Z,6.70
2022-08-17T20:24:41.433Z,6.20
2022-08-17T20:34:40.761Z,6.00
2022-08-17T20:44:40.792Z,5.40
2022-08-17T20:54:41.134Z,5.30
2022-08-17T21:04:41.174Z,5.10
2022-08-17T21:14:41.462Z,5.70
2022-08-17T21:24:41.492Z,5.80
2022-08-17T21:34:41.805Z,5.90
2022-08-17T21:44:41.847Z,5.60
2022-08-17T21:54:42.166Z,3.70
2022-08-17T22:04:42.569Z,3.30
2022-08-17T22:14:53.003Z,3.70
2022-08-17T22:24:43.498Z,3.70
2022-08-17T22:34:42.984Z,3.40
2022-08-17T22:44:42.809Z,3.20
2022-08-17T22:54:43.108Z,3.20
2022-08-17T23:04:43.148Z,3.30
2022-08-17T23:14:43.459Z,3.50
2022-08-17T23:24:43.479Z,3.40
2022-08-17T23:34:43.803Z,3.30
2022-08-17T23:44:43.810Z,3.30
2022-08-17T23:54:44.155Z,3.30
